Time;durP1;ratioP1;P1;durP2;ratioP2;P2;SDS_P1;SDS_P2;PMS_P1;PMS_P2;Temp;Humidity;BMP_temperature;BMP_pressure;BME280_temperature;BME280_humidity;BME280_pressure;Samples;Min_cycle;Max_cycle;Signal;HPM_P1;HPM_P2
2024/01/26 00:01:44;;;;;;;29.33;22.87;;;;;;;;;;5061647;28;20455;-85
2024/01/26 00:04:11;;;;;;;24.87;22.47;;;;;;;;;;5060926;28;20441;-84
2024/01/26 00:06:38;;;;;;;32.57;23.77;;;;;;;;;;5060007;28;20450;-83
2024/01/26 00:09:13;;;;;;;26.87;24.03;;;;;;;;;;5061141;28;20470;-85
2024/01/26 00:11:40;;;;;;;26.17;23.27;;;;;;;;;;5077142;28;20855;-85
2024/01/26 00:14:07;;;;;;;24.70;22.40;;;;;;;;;;5076939;28;20952;-85
2024/01/26 00:16:34;;;;;;;34.13;24.53;;;;;;;;;;5080844;28;20464;-85
2024/01/26 00:19:01;;;;;;;26.47;23.80;;;;;;;;;;5081125;28;20589;-85
2024/01/26 00:21:29;;;;;;;24.53;21.93;;;;;;;;;;5080755;28;20539;-85
2024/01/26 00:23:56;;;;;;;32.57;24.50;;;;;;;;;;5080968;28;20417;-86
2024/01/26 00:26:24;;;;;;;30.63;22.57;;;;;;;;;;5080147;28;20442;-85
2024/01/26 00:28:51;;;;;;;26.03;23.40;;;;;;;;;;5080970;28;20515;-85
2024/01/26 00:31:19;;;;;;;27.30;24.60;;;;;;;;;;5081005;28;20453;-85
2024/01/26 00:33:46;;;;;;;28.43;25.60;;;;;;;;;;5080888;28;20484;-85
2024/01/26 00:36:14;;;;;;;28.00;25.20;;;;;;;;;;5076098;28;20455;-85
2024/01/26 00:38:41;;;;;;;29.13;26.47;;;;;;;;;;5060934;28;20861;-85
2024/01/26 00:41:10;;;;;;;38.87;26.70;;;;;;;;;;5065512;28;20560;-85
2024/01/26 00:43:38;;;;;;;27.20;24.80;;;;;;;;;;5060756;28;20465;-85
2024/01/26 00:46:05;;;;;;;29.77;26.70;;;;;;;;;;5064697;28;20507;-86
2024/01/26 00:48:32;;;;;;;28.63;25.57;;;;;;;;;;5080717;28;20488;-86
2024/01/26 00:50:59;;;;;;;31.27;26.10;;;;;;;;;;5080209;28;20446;-85
2024/01/26 00:53:26;;;;;;;28.20;25.30;;;;;;;;;;5080905;28;20928;-84
2024/01/26 00:55:53;;;;;;;38.63;28.53;;;;;;;;;;5080752;28;20908;-85
2024/01/26 00:58:20;;;;;;;26.67;24.07;;;;;;;;;;5079922;28;20512;-84
2024/01/26 01:00:49;;;;;;;31.70;28.23;;;;;;;;;;5080295;28;20485;-86
2024/01/26 01:03:16;;;;;;;29.53;26.60;;;;;;;;;;5080546;28;20796;-86
2024/01/26 01:05:43;;;;;;;29.30;26.57;;;;;;;;;;5080309;28;20404;-86
2024/01/26 01:08:10;;;;;;;29.80;26.90;;;;;;;;;;5080025;28;20517;-86
2024/01/26 01:10:37;;;;;;;28.63;26.10;;;;;;;;;;5080291;28;20458;-85
2024/01/26 01:13:05;;;;;;;28.70;26.00;;;;;;;;;;5080488;28;20588;-85
2024/01/26 01:15:32;;;;;;;30.27;26.07;;;;;;;;;;5080042;28;20450;-85
2024/01/26 01:18:00;;;;;;;28.73;25.87;;;;;;;;;;5078608;28;20458;-86
2024/01/26 01:20:27;;;;;;;30.67;27.83;;;;;;;;;;5079320;28;20481;-86
2024/01/26 01:22:57;;;;;;;30.00;26.10;;;;;;;;;;5060053;28;20493;-85
2024/01/26 01:25:25;;;;;;;30.03;27.20;;;;;;;;;;5060643;28;20508;-85
2024/01/26 01:27:52;;;;;;;32.27;28.90;;;;;;;;;;5059390;28;20429;-86
2024/01/26 01:30:19;;;;;;;33.37;28.47;;;;;;;;;;5060344;28;20493;-84
2024/01/26 01:32:46;;;;;;;34.90;29.03;;;;;;;;;;5060025;28;20405;-86
2024/01/26 01:35:14;;;;;;;31.43;28.23;;;;;;;;;;5060252;28;20438;-86
2024/01/26 01:37:41;;;;;;;29.90;27.00;;;;;;;;;;5059374;28;20439;-86
2024/01/26 01:40:09;;;;;;;30.03;27.40;;;;;;;;;;5059981;28;20498;-85
2024/01/26 01:42:36;;;;;;;30.93;28.20;;;;;;;;;;5059537;28;20431;-85
2024/01/26 01:45:11;;;;;;;32.27;28.40;;;;;;;;;;5059336;28;20447;-86
2024/01/26 01:47:38;;;;;;;33.60;30.60;;;;;;;;;;5059874;28;21013;-85
2024/01/26 01:50:06;;;;;;;32.00;28.60;;;;;;;;;;5058886;28;20497;-86
2024/01/26 01:52:35;;;;;;;34.73;31.07;;;;;;;;;;5058109;28;20443;-84
2024/01/26 01:55:02;;;;;;;33.63;30.63;;;;;;;;;;5062016;28;20475;-85
2024/01/26 01:57:33;;;;;;;32.37;29.47;;;;;;;;;;5062751;28;20471;-86
2024/01/26 02:00:01;;;;;;;34.10;30.63;;;;;;;;;;5069339;28;20444;-84
2024/01/26 02:02:28;;;;;;;34.10;30.80;;;;;;;;;;5063591;28;20526;-86
2024/01/26 02:04:55;;;;;;;33.57;30.50;;;;;;;;;;5063991;28;20429;-86
2024/01/26 02:07:22;;;;;;;32.33;29.40;;;;;;;;;;5063213;28;20425;-86
2024/01/26 02:09:50;;;;;;;30.90;28.37;;;;;;;;;;5063594;28;20595;-86
2024/01/26 02:12:17;;;;;;;33.33;30.33;;;;;;;;;;5063942;28;20448;-86
2024/01/26 02:14:45;;;;;;;34.73;31.27;;;;;;;;;;5063545;28;20670;-87
2024/01/26 02:17:12;;;;;;;35.23;32.00;;;;;;;;;;5062925;28;20549;-85
2024/01/26 02:19:39;;;;;;;37.20;32.60;;;;;;;;;;5063340;28;20944;-86
2024/01/26 02:22:06;;;;;;;35.60;31.90;;;;;;;;;;5064180;28;20474;-86
2024/01/26 02:24:34;;;;;;;35.33;31.77;;;;;;;;;;5063772;28;20457;-86
2024/01/26 02:27:01;;;;;;;34.67;31.17;;;;;;;;;;5063284;28;20845;-86
2024/01/26 02:29:28;;;;;;;36.30;32.77;;;;;;;;;;5063684;28;20467;-86
2024/01/26 02:31:55;;;;;;;36.60;33.10;;;;;;;;;;5071938;28;20475;-86
2024/01/26 02:34:22;;;;;;;35.83;32.70;;;;;;;;;;5062528;28;20454;-86
2024/01/26 02:36:49;;;;;;;36.80;32.97;;;;;;;;;;5067459;28;20460;-87
2024/01/26 02:39:16;;;;;;;33.30;30.47;;;;;;;;;;5083003;28;20846;-86
2024/01/26 02:41:44;;;;;;;34.07;31.37;;;;;;;;;;5069351;28;20556;-86
2024/01/26 02:44:11;;;;;;;35.60;32.70;;;;;;;;;;5063191;28;20442;-86
2024/01/26 02:46:39;;;;;;;34.33;31.20;;;;;;;;;;5073334;28;20441;-86
2024/01/26 02:49:06;;;;;;;34.33;31.40;;;;;;;;;;5081865;28;20457;-86
2024/01/26 02:51:33;;;;;;;35.73;32.43;;;;;;;;;;5082289;28;20507;-86
2024/01/26 02:54:02;;;;;;;33.77;30.70;;;;;;;;;;5083039;28;20428;-86
2024/01/26 02:56:29;;;;;;;32.13;29.73;;;;;;;;;;5081768;28;20479;-85
2024/01/26 02:58:58;;;;;;;34.70;31.87;;;;;;;;;;5082753;28;20444;-86
2024/01/26 03:01:25;;;;;;;31.43;28.97;;;;;;;;;;5081871;28;20671;-86
2024/01/26 03:03:52;;;;;;;35.30;32.30;;;;;;;;;;5082560;28;20468;-86
2024/01/26 03:06:19;;;;;;;31.47;28.77;;;;;;;;;;5081076;28;20446;-85
2024/01/26 03:08:46;;;;;;;37.77;33.77;;;;;;;;;;5081210;28;21148;-86
2024/01/26 03:11:13;;;;;;;36.00;32.80;;;;;;;;;;5082784;28;20446;-86
2024/01/26 03:13:41;;;;;;;35.67;32.23;;;;;;;;;;5081880;28;20458;-86
2024/01/26 03:16:09;;;;;;;34.97;32.10;;;;;;;;;;5081664;28;20487;-85
2024/01/26 03:18:36;;;;;;;33.30;30.57;;;;;;;;;;5082689;28;20432;-86
2024/01/26 03:21:03;;;;;;;29.57;27.13;;;;;;;;;;5079638;28;20965;-85
2024/01/26 03:23:30;;;;;;;27.87;25.80;;;;;;;;;;5078267;28;20925;-86
2024/01/26 03:25:57;;;;;;;34.60;31.60;;;;;;;;;;5079936;28;20442;-86
2024/01/26 03:28:24;;;;;;;32.37;29.87;;;;;;;;;;5061518;28;20482;-85
2024/01/26 03:30:51;;;;;;;36.80;33.40;;;;;;;;;;5062079;28;20487;-86
2024/01/26 03:33:19;;;;;;;34.67;31.60;;;;;;;;;;5061934;28;20455;-86
2024/01/26 03:35:46;;;;;;;34.53;31.53;;;;;;;;;;5061781;28;20931;-86
2024/01/26 03:38:13;;;;;;;31.93;29.00;;;;;;;;;;5064379;28;20459;-86
2024/01/26 03:40:46;;;;;;;33.50;30.40;;;;;;;;;;5081509;28;20468;-86
2024/01/26 03:43:13;;;;;;;34.90;31.90;;;;;;;;;;5081509;28;20430;-86
2024/01/26 03:45:40;;;;;;;33.43;30.93;;;;;;;;;;5074895;28;20425;-86
2024/01/26 03:48:08;;;;;;;35.73;32.47;;;;;;;;;;5061066;28;20463;-86
2024/01/26 03:50:42;;;;;;;35.30;32.07;;;;;;;;;;5061138;28;20804;-86
2024/01/26 03:53:09;;;;;;;33.07;30.57;;;;;;;;;;5065086;28;20600;-86
2024/01/26 03:55:37;;;;;;;36.20;33.00;;;;;;;;;;5076402;28;20453;-86
2024/01/26 03:58:04;;;;;;;33.93;31.43;;;;;;;;;;5074410;28;20450;-84
2024/01/26 04:00:32;;;;;;;34.50;31.80;;;;;;;;;;5061546;28;20469;-86
2024/01/26 04:02:59;;;;;;;35.03;32.50;;;;;;;;;;5061085;28;20955;-85
2024/01/26 04:05:26;;;;;;;35.13;31.93;;;;;;;;;;5061791;28;20454;-85
2024/01/26 04:07:54;;;;;;;31.57;28.80;;;;;;;;;;5060230;28;20939;-86
2024/01/26 04:10:21;;;;;;;36.70;33.57;;;;;;;;;;5081111;28;20474;-86
2024/01/26 04:12:48;;;;;;;33.10;30.53;;;;;;;;;;5075612;28;20434;-85
2024/01/26 04:15:15;;;;;;;36.20;33.10;;;;;;;;;;5060078;28;20834;-86
2024/01/26 04:17:42;;;;;;;34.40;31.90;;;;;;;;;;5059817;28;20458;-86
2024/01/26 04:20:09;;;;;;;32.97;30.27;;;;;;;;;;5060629;28;20481;-84
2024/01/26 04:22:36;;;;;;;33.80;30.90;;;;;;;;;;5060380;28;20520;-84
2024/01/26 04:25:05;;;;;;;37.57;34.30;;;;;;;;;;5061283;28;20439;-86
2024/01/26 04:27:32;;;;;;;35.80;33.00;;;;;;;;;;5060032;28;20545;-86
2024/01/26 04:29:59;;;;;;;36.47;33.63;;;;;;;;;;5060813;28;20437;-85
2024/01/26 04:32:26;;;;;;;34.00;31.43;;;;;;;;;;5066508;28;20457;-84
2024/01/26 04:34:53;;;;;;;38.07;34.43;;;;;;;;;;5080651;28;20520;-84
2024/01/26 04:37:21;;;;;;;36.13;33.57;;;;;;;;;;5069728;28;20442;-86
2024/01/26 04:39:50;;;;;;;37.87;34.37;;;;;;;;;;5059169;28;20566;-85
2024/01/26 04:42:19;;;;;;;36.43;32.63;;;;;;;;;;5078017;28;20519;-86
2024/01/26 04:44:46;;;;;;;39.50;35.50;;;;;;;;;;5080857;28;20445;-86
2024/01/26 04:47:13;;;;;;;37.13;33.97;;;;;;;;;;5079936;28;20449;-86
2024/01/26 04:49:40;;;;;;;38.83;35.53;;;;;;;;;;5080255;28;20458;-86
2024/01/26 04:52:07;;;;;;;37.73;34.33;;;;;;;;;;5069957;28;20451;-86
2024/01/26 04:54:34;;;;;;;37.30;34.10;;;;;;;;;;5060016;28;20447;-86
2024/01/26 04:57:01;;;;;;;38.37;34.90;;;;;;;;;;5059825;28;20440;-85
2024/01/26 04:59:29;;;;;;;37.50;34.20;;;;;;;;;;5060324;28;20929;-86
2024/01/26 05:01:56;;;;;;;39.87;36.17;;;;;;;;;;5060541;28;20465;-85
2024/01/26 05:04:23;;;;;;;35.90;32.87;;;;;;;;;;5060206;28;20451;-86
2024/01/26 05:06:51;;;;;;;36.57;33.47;;;;;;;;;;5059275;28;20517;-86
2024/01/26 05:09:18;;;;;;;38.17;34.97;;;;;;;;;;5060408;28;20558;-85
2024/01/26 05:11:45;;;;;;;38.47;34.97;;;;;;;;;;5065788;28;21102;-86
2024/01/26 05:14:13;;;;;;;36.07;33.23;;;;;;;;;;5060879;28;20443;-86
2024/01/26 05:16:41;;;;;;;37.33;34.23;;;;;;;;;;5058462;28;20511;-86
2024/01/26 05:19:08;;;;;;;37.50;34.20;;;;;;;;;;5059450;28;20520;-86
2024/01/26 05:21:35;;;;;;;39.33;36.23;;;;;;;;;;5059647;28;20474;-86
2024/01/26 05:24:02;;;;;;;34.23;31.80;;;;;;;;;;5060157;28;20435;-86
2024/01/26 05:26:29;;;;;;;38.93;35.47;;;;;;;;;;5058998;28;20418;-83
2024/01/26 05:28:56;;;;;;;32.87;30.67;;;;;;;;;;5058889;28;20451;-86
2024/01/26 05:31:23;;;;;;;33.90;31.10;;;;;;;;;;5059674;28;20439;-86
2024/01/26 05:33:51;;;;;;;36.20;33.50;;;;;;;;;;5059776;28;20512;-85
2024/01/26 05:36:18;;;;;;;33.13;30.93;;;;;;;;;;5058887;28;20446;-86
2024/01/26 05:38:45;;;;;;;40.27;37.03;;;;;;;;;;5064386;28;20473;-85
2024/01/26 05:41:12;;;;;;;37.50;34.60;;;;;;;;;;5070802;28;20581;-86
2024/01/26 05:43:40;;;;;;;41.67;38.20;;;;;;;;;;5059166;28;20431;-86
2024/01/26 05:46:07;;;;;;;34.47;31.93;;;;;;;;;;5059064;28;20432;-84
2024/01/26 05:48:34;;;;;;;38.43;35.27;;;;;;;;;;5059194;28;20486;-83
2024/01/26 05:51:02;;;;;;;37.60;34.40;;;;;;;;;;5059595;28;20463;-86
2024/01/26 05:53:29;;;;;;;37.10;34.17;;;;;;;;;;5060035;28;20462;-86
2024/01/26 05:55:57;;;;;;;37.17;34.20;;;;;;;;;;5059073;28;20459;-87
2024/01/26 05:58:24;;;;;;;34.13;31.37;;;;;;;;;;5059248;28;20437;-86
2024/01/26 06:00:51;;;;;;;37.47;34.33;;;;;;;;;;5059172;28;20821;-85
2024/01/26 06:03:18;;;;;;;36.97;33.83;;;;;;;;;;5058644;28;20486;-86
2024/01/26 06:05:45;;;;;;;35.77;32.97;;;;;;;;;;5058661;28;20451;-86
2024/01/26 06:08:13;;;;;;;36.37;33.40;;;;;;;;;;5068258;28;20429;-86
2024/01/26 06:10:40;;;;;;;36.50;33.07;;;;;;;;;;5079060;28;20559;-85
2024/01/26 06:13:07;;;;;;;33.20;30.60;;;;;;;;;;5079156;28;20445;-85
2024/01/26 06:15:36;;;;;;;32.57;29.87;;;;;;;;;;5078858;28;20503;-86
2024/01/26 06:18:03;;;;;;;37.10;34.07;;;;;;;;;;5078856;28;20476;-86
2024/01/26 06:20:31;;;;;;;36.67;33.67;;;;;;;;;;5078998;28;20432;-84
2024/01/26 06:22:58;;;;;;;37.20;34.00;;;;;;;;;;5078705;28;20480;-84
2024/01/26 06:25:26;;;;;;;36.87;33.80;;;;;;;;;;5077924;28;20420;-85
2024/01/26 06:27:53;;;;;;;37.80;34.67;;;;;;;;;;5078096;28;20432;-86
2024/01/26 06:30:20;;;;;;;36.47;33.57;;;;;;;;;;5078972;28;20478;-85
2024/01/26 06:32:47;;;;;;;36.70;33.90;;;;;;;;;;5078491;28;20490;-85
2024/01/26 06:35:14;;;;;;;37.27;34.37;;;;;;;;;;5079650;28;20446;-86
2024/01/26 06:37:42;;;;;;;38.10;34.60;;;;;;;;;;5067751;28;20459;-85
2024/01/26 06:40:11;;;;;;;34.40;32.00;;;;;;;;;;5059892;28;20470;-85
2024/01/26 06:42:40;;;;;;;34.93;32.37;;;;;;;;;;5078158;28;20464;-86
2024/01/26 06:45:10;;;;;;;34.80;32.20;;;;;;;;;;5083219;28;20471;-84
2024/01/26 06:47:37;;;;;;;33.70;31.03;;;;;;;;;;5082024;28;20454;-86
2024/01/26 06:50:04;;;;;;;33.53;31.33;;;;;;;;;;5081656;28;20985;-85
2024/01/26 06:52:31;;;;;;;35.40;32.77;;;;;;;;;;5081843;28;20513;-85
2024/01/26 06:54:58;;;;;;;35.40;32.57;;;;;;;;;;5081609;28;20904;-84
2024/01/26 06:57:26;;;;;;;33.87;31.57;;;;;;;;;;5081579;28;20479;-84
2024/01/26 06:59:54;;;;;;;35.90;33.07;;;;;;;;;;5081660;28;20529;-85
2024/01/26 07:02:21;;;;;;;36.03;33.53;;;;;;;;;;5063832;28;20465;-83
2024/01/26 07:04:48;;;;;;;36.17;33.23;;;;;;;;;;5061511;28;20855;-85
2024/01/26 07:07:15;;;;;;;32.63;30.47;;;;;;;;;;5061037;28;20458;-85
2024/01/26 07:09:42;;;;;;;36.63;34.13;;;;;;;;;;5061965;28;20508;-86
2024/01/26 07:12:09;;;;;;;32.63;30.33;;;;;;;;;;5061606;28;20931;-86
2024/01/26 07:14:36;;;;;;;33.40;31.20;;;;;;;;;;5060527;28;20838;-86
2024/01/26 07:17:05;;;;;;;32.03;29.63;;;;;;;;;;5059782;28;20515;-85
2024/01/26 07:19:32;;;;;;;33.07;31.00;;;;;;;;;;5059844;28;20562;-85
2024/01/26 07:21:59;;;;;;;33.80;31.60;;;;;;;;;;5073476;28;20559;-84
2024/01/26 07:24:26;;;;;;;33.47;31.07;;;;;;;;;;5060332;28;20474;-88
2024/01/26 07:26:54;;;;;;;29.37;27.47;;;;;;;;;;5060495;28;20500;-86
2024/01/26 07:29:21;;;;;;;34.30;31.60;;;;;;;;;;5063685;28;20501;-87
2024/01/26 07:31:48;;;;;;;30.47;28.37;;;;;;;;;;5065425;28;20466;-87
2024/01/26 07:34:16;;;;;;;27.33;25.53;;;;;;;;;;5065232;28;20926;-86
2024/01/26 07:36:43;;;;;;;31.30;29.20;;;;;;;;;;5064465;28;20462;-87
2024/01/26 07:39:10;;;;;;;30.30;28.10;;;;;;;;;;5064584;28;20533;-86
2024/01/26 07:41:37;;;;;;;31.83;29.50;;;;;;;;;;5073916;28;20473;-87
2024/01/26 07:44:04;;;;;;;33.27;30.70;;;;;;;;;;5064824;28;20915;-87
2024/01/26 07:46:32;;;;;;;32.90;30.30;;;;;;;;;;5064184;28;20431;-88
2024/01/26 07:49:00;;;;;;;32.90;30.40;;;;;;;;;;5063298;28;20485;-86
2024/01/26 07:51:28;;;;;;;33.43;30.93;;;;;;;;;;5063718;28;20455;-86
2024/01/26 07:53:56;;;;;;;33.27;30.57;;;;;;;;;;5064211;28;20439;-86
2024/01/26 07:56:23;;;;;;;32.20;29.80;;;;;;;;;;5063208;28;20449;-88
2024/01/26 07:58:50;;;;;;;32.13;29.70;;;;;;;;;;5064099;28;20520;-86
2024/01/26 08:01:17;;;;;;;33.40;30.90;;;;;;;;;;5074905;28;20903;-86
2024/01/26 08:03:44;;;;;;;33.10;30.70;;;;;;;;;;5064034;28;20470;-88
2024/01/26 08:06:11;;;;;;;31.17;29.00;;;;;;;;;;5063972;28;20439;-86
2024/01/26 08:08:39;;;;;;;31.73;29.00;;;;;;;;;;5063771;28;20458;-86
2024/01/26 08:11:06;;;;;;;31.80;29.17;;;;;;;;;;5063371;28;20470;-87
2024/01/26 08:13:33;;;;;;;29.10;27.00;;;;;;;;;;5063017;28;20458;-87
2024/01/26 08:16:00;;;;;;;27.37;25.67;;;;;;;;;;5062695;28;20457;-86
2024/01/26 08:18:27;;;;;;;26.17;24.37;;;;;;;;;;5062755;28;20489;-87
2024/01/26 08:20:55;;;;;;;28.10;26.33;;;;;;;;;;5062655;28;20439;-84
2024/01/26 08:23:22;;;;;;;30.70;28.30;;;;;;;;;;5062976;28;20486;-86
2024/01/26 08:25:50;;;;;;;32.07;30.00;;;;;;;;;;5065850;28;20463;-87
2024/01/26 08:28:17;;;;;;;31.53;29.20;;;;;;;;;;5080855;28;20434;-86
2024/01/26 08:30:45;;;;;;;31.33;29.23;;;;;;;;;;5079607;28;20474;-88
2024/01/26 08:33:12;;;;;;;29.63;27.67;;;;;;;;;;5067756;28;20454;-86
2024/01/26 08:35:39;;;;;;;28.60;26.90;;;;;;;;;;5070873;28;20430;-86
2024/01/26 08:38:06;;;;;;;30.53;28.13;;;;;;;;;;5066428;28;20544;-84
2024/01/26 08:40:33;;;;;;;29.13;27.13;;;;;;;;;;5082272;28;20458;-85
2024/01/26 08:43:02;;;;;;;29.93;28.23;;;;;;;;;;5067473;28;21042;-81
2024/01/26 08:45:29;;;;;;;29.90;28.20;;;;;;;;;;5055936;28;20454;-79
2024/01/26 08:47:56;;;;;;;29.70;28.00;;;;;;;;;;5054821;28;20485;-80
2024/01/26 08:50:23;;;;;;;28.47;26.77;;;;;;;;;;5056377;28;20465;-79
2024/01/26 08:52:50;;;;;;;26.57;25.07;;;;;;;;;;5056704;28;21220;-80
2024/01/26 08:55:17;;;;;;;32.83;30.83;;;;;;;;;;5055778;28;20454;-79
2024/01/26 08:57:45;;;;;;;31.73;29.83;;;;;;;;;;5055226;28;20461;-77
2024/01/26 09:00:15;;;;;;;30.90;29.10;;;;;;;;;;5054944;28;20462;-83
2024/01/26 09:02:42;;;;;;;32.90;31.00;;;;;;;;;;5055562;28;20924;-76
2024/01/26 09:05:11;;;;;;;32.90;31.00;;;;;;;;;;5052640;28;20451;-76
2024/01/26 09:07:38;;;;;;;33.60;31.70;;;;;;;;;;5051742;28;20853;-76
2024/01/26 09:10:05;;;;;;;33.00;31.30;;;;;;;;;;5051950;28;20871;-76
2024/01/26 09:12:33;;;;;;;34.90;32.90;;;;;;;;;;5051960;28;20501;-77
2024/01/26 09:15:00;;;;;;;37.33;34.80;;;;;;;;;;5049391;28;20890;-75
2024/01/26 09:17:28;;;;;;;36.60;34.60;;;;;;;;;;5050043;28;20839;-76
2024/01/26 09:19:55;;;;;;;35.10;32.90;;;;;;;;;;5050602;28;20841;-79
2024/01/26 09:22:23;;;;;;;35.17;33.37;;;;;;;;;;5051343;28;20790;-77
2024/01/26 09:24:50;;;;;;;37.27;35.23;;;;;;;;;;5050992;28;20447;-76
2024/01/26 09:27:17;;;;;;;34.40;32.50;;;;;;;;;;5050308;28;20504;-78
2024/01/26 09:29:44;;;;;;;40.83;38.40;;;;;;;;;;5049923;28;20544;-76
2024/01/26 09:32:10;;;;;;;37.40;35.00;;;;;;;;;;5050146;28;20447;-75
2024/01/26 09:34:39;;;;;;;35.73;33.77;;;;;;;;;;5050816;28;20447;-75
2024/01/26 09:37:06;;;;;;;35.97;34.13;;;;;;;;;;5049810;28;20454;-75
2024/01/26 09:39:33;;;;;;;44.83;42.43;;;;;;;;;;5049553;28;20998;-76
2024/01/26 09:42:00;;;;;;;41.73;39.53;;;;;;;;;;5050528;28;20927;-77
2024/01/26 09:44:27;;;;;;;41.97;39.70;;;;;;;;;;5050089;28;20510;-75
2024/01/26 09:46:55;;;;;;;36.00;33.53;;;;;;;;;;5049738;28;20475;-76
2024/01/26 09:49:23;;;;;;;36.30;34.30;;;;;;;;;;5051316;28;20974;-79
2024/01/26 09:51:52;;;;;;;43.53;41.33;;;;;;;;;;5051294;28;21014;-78
2024/01/26 09:54:20;;;;;;;52.67;49.97;;;;;;;;;;5050685;28;20484;-77
2024/01/26 09:56:47;;;;;;;55.47;52.57;;;;;;;;;;5050063;28;20517;-77
2024/01/26 09:59:14;;;;;;;57.67;54.47;;;;;;;;;;5050032;28;21056;-78
2024/01/26 10:01:43;;;;;;;54.73;51.83;;;;;;;;;;5050908;28;20806;-78
2024/01/26 10:04:10;;;;;;;53.03;50.03;;;;;;;;;;5050835;28;20560;-77
2024/01/26 10:06:37;;;;;;;54.57;51.67;;;;;;;;;;5049490;28;20542;-76
2024/01/26 10:09:08;;;;;;;51.10;48.40;;;;;;;;;;5050398;28;20564;-77
2024/01/26 10:11:35;;;;;;;50.67;47.77;;;;;;;;;;5050308;28;20451;-76
2024/01/26 10:14:02;;;;;;;50.77;47.93;;;;;;;;;;5050206;28;20443;-77
2024/01/26 10:16:29;;;;;;;51.53;48.77;;;;;;;;;;5052856;28;20499;-77
2024/01/26 10:18:56;;;;;;;54.00;51.10;;;;;;;;;;5053061;28;20514;-76
2024/01/26 10:21:24;;;;;;;51.03;48.20;;;;;;;;;;5053510;28;20451;-75
2024/01/26 10:23:51;;;;;;;50.23;47.43;;;;;;;;;;5053099;28;20579;-76
2024/01/26 10:26:19;;;;;;;49.40;46.50;;;;;;;;;;5052452;28;20451;-77
2024/01/26 10:28:48;;;;;;;50.83;47.93;;;;;;;;;;5052675;28;20523;-76
2024/01/26 10:31:15;;;;;;;48.27;45.50;;;;;;;;;;5055439;28;21100;-79
2024/01/26 10:33:45;;;;;;;50.20;47.37;;;;;;;;;;5058020;28;20447;-80
2024/01/26 10:36:13;;;;;;;49.73;46.60;;;;;;;;;;5057710;28;20498;-79
2024/01/26 10:38:41;;;;;;;48.73;45.87;;;;;;;;;;5059846;28;20815;-78
2024/01/26 10:41:08;;;;;;;52.33;49.40;;;;;;;;;;5056248;28;20454;-79
2024/01/26 10:43:37;;;;;;;53.27;50.17;;;;;;;;;;5055256;28;20866;-78
2024/01/26 10:46:04;;;;;;;50.73;47.73;;;;;;;;;;5056203;28;20450;-80
2024/01/26 10:48:31;;;;;;;50.60;47.40;;;;;;;;;;5056336;28;20516;-79
2024/01/26 10:50:58;;;;;;;53.27;50.10;;;;;;;;;;5056120;28;20451;-79
2024/01/26 10:53:25;;;;;;;51.10;48.10;;;;;;;;;;5056505;28;20442;-79
2024/01/26 10:55:53;;;;;;;53.87;50.77;;;;;;;;;;5056021;28;20754;-79
2024/01/26 10:58:21;;;;;;;58.33;54.77;;;;;;;;;;5055907;28;20926;-78
2024/01/26 11:00:49;;;;;;;55.43;51.77;;;;;;;;;;5056040;28;20466;-78
2024/01/26 11:03:16;;;;;;;54.10;51.00;;;;;;;;;;5055531;28;21275;-80
2024/01/26 11:05:48;;;;;;;57.47;54.17;;;;;;;;;;5056125;28;20458;-78
2024/01/26 11:08:20;;;;;;;60.80;57.20;;;;;;;;;;5055359;28;20438;-78
2024/01/26 11:10:50;;;;;;;55.70;52.50;;;;;;;;;;5056387;28;20469;-79
2024/01/26 11:13:17;;;;;;;62.20;58.50;;;;;;;;;;5054960;28;20470;-77
2024/01/26 11:15:47;;;;;;;60.07;56.47;;;;;;;;;;5055458;28;20462;-79
2024/01/26 11:18:23;;;;;;;55.27;51.87;;;;;;;;;;5055618;28;20450;-79
2024/01/26 11:20:50;;;;;;;54.63;51.60;;;;;;;;;;5056004;28;20412;-79
2024/01/26 11:23:17;;;;;;;53.07;49.77;;;;;;;;;;5055488;28;20547;-79
2024/01/26 11:25:45;;;;;;;52.63;49.43;;;;;;;;;;5055521;28;20447;-78
2024/01/26 11:28:15;;;;;;;53.63;50.40;;;;;;;;;;5053988;28;20454;-79
2024/01/26 11:30:43;;;;;;;53.73;50.23;;;;;;;;;;5055149;28;20481;-79
2024/01/26 11:33:17;;;;;;;52.50;49.40;;;;;;;;;;5061549;28;20464;-78
2024/01/26 11:35:45;;;;;;;51.83;48.93;;;;;;;;;;5074955;28;20438;-79
2024/01/26 11:38:12;;;;;;;53.43;50.43;;;;;;;;;;5074918;28;20511;-79
2024/01/26 11:40:40;;;;;;;58.63;55.43;;;;;;;;;;5073085;28;20545;-79
2024/01/26 11:43:07;;;;;;;53.27;50.17;;;;;;;;;;5055138;28;20494;-78
2024/01/26 11:45:44;;;;;;;47.47;45.07;;;;;;;;;;5065674;28;20428;-78
2024/01/26 11:48:11;;;;;;;48.50;46.10;;;;;;;;;;5075298;28;20791;-78
2024/01/26 11:50:39;;;;;;;43.80;41.50;;;;;;;;;;5075595;28;20470;-79
2024/01/26 11:53:07;;;;;;;41.13;39.23;;;;;;;;;;5075207;28;20998;-78
2024/01/26 11:55:34;;;;;;;36.60;34.97;;;;;;;;;;5075154;28;20434;-79
2024/01/26 11:58:02;;;;;;;34.57;32.97;;;;;;;;;;5060078;28;20528;-79
2024/01/26 12:00:29;;;;;;;34.37;32.77;;;;;;;;;;5074114;28;20801;-79
2024/01/26 12:02:57;;;;;;;31.87;30.40;;;;;;;;;;5074788;28;20456;-79
2024/01/26 12:05:24;;;;;;;29.70;28.30;;;;;;;;;;5074687;28;20499;-79
2024/01/26 12:07:51;;;;;;;28.73;27.43;;;;;;;;;;5074400;28;20453;-79
2024/01/26 12:10:19;;;;;;;29.97;28.57;;;;;;;;;;5074638;28;20444;-79
2024/01/26 12:12:49;;;;;;;29.67;28.37;;;;;;;;;;5063417;28;20506;-79
2024/01/26 12:15:16;;;;;;;27.50;25.80;;;;;;;;;;5054542;28;20421;-78
2024/01/26 12:17:43;;;;;;;23.80;22.70;;;;;;;;;;5054301;28;20822;-78
2024/01/26 12:20:11;;;;;;;25.00;23.80;;;;;;;;;;5054096;28;20490;-77
2024/01/26 12:22:38;;;;;;;24.17;22.83;;;;;;;;;;5054459;28;20477;-79
2024/01/26 12:25:07;;;;;;;23.20;22.10;;;;;;;;;;5053513;28;20514;-79
2024/01/26 12:27:35;;;;;;;23.10;22.00;;;;;;;;;;5053496;28;20433;-78
2024/01/26 12:30:03;;;;;;;22.10;21.10;;;;;;;;;;5055019;28;20546;-76
2024/01/26 12:32:30;;;;;;;23.27;22.17;;;;;;;;;;5052044;28;20537;-77
2024/01/26 12:34:59;;;;;;;23.07;22.07;;;;;;;;;;5052483;28;20565;-79
2024/01/26 12:37:26;;;;;;;22.63;21.53;;;;;;;;;;5051787;28;20447;-77
2024/01/26 12:39:53;;;;;;;21.50;20.50;;;;;;;;;;5051039;28;20482;-76
2024/01/26 12:42:20;;;;;;;22.70;21.40;;;;;;;;;;5051356;28;20504;-77
2024/01/26 12:44:48;;;;;;;21.73;20.63;;;;;;;;;;5050546;28;20510;-77
2024/01/26 12:47:15;;;;;;;21.87;20.47;;;;;;;;;;5058354;28;20447;-79
2024/01/26 12:49:42;;;;;;;21.63;20.30;;;;;;;;;;5060139;28;20493;-79
2024/01/26 12:52:09;;;;;;;20.90;19.67;;;;;;;;;;5059926;28;20500;-79
2024/01/26 12:54:36;;;;;;;20.33;19.23;;;;;;;;;;5059843;28;20923;-79
2024/01/26 12:57:03;;;;;;;20.00;19.00;;;;;;;;;;5064316;28;20482;-79
2024/01/26 12:59:30;;;;;;;20.97;19.87;;;;;;;;;;5058887;28;20478;-79
2024/01/26 13:01:59;;;;;;;22.10;20.70;;;;;;;;;;5059265;28;20504;-79
2024/01/26 13:04:26;;;;;;;23.07;21.30;;;;;;;;;;5059724;28;20515;-79
2024/01/26 13:06:53;;;;;;;22.17;20.70;;;;;;;;;;5058661;28;20469;-80
2024/01/26 13:09:20;;;;;;;20.80;19.70;;;;;;;;;;5059148;28;20463;-79
2024/01/26 13:11:47;;;;;;;23.83;22.07;;;;;;;;;;5059343;28;20459;-79
2024/01/26 13:14:14;;;;;;;22.27;21.07;;;;;;;;;;5059479;28;21181;-80
2024/01/26 13:16:41;;;;;;;22.90;21.30;;;;;;;;;;5058771;28;20454;-80
2024/01/26 13:19:09;;;;;;;22.17;20.90;;;;;;;;;;5059598;28;20471;-80
2024/01/26 13:21:36;;;;;;;22.13;20.90;;;;;;;;;;5059242;28;20541;-79
2024/01/26 13:24:03;;;;;;;22.47;20.33;;;;;;;;;;5059697;28;20532;-80
2024/01/26 13:26:31;;;;;;;22.93;21.30;;;;;;;;;;5059288;28;20564;-80
2024/01/26 13:28:58;;;;;;;21.43;20.13;;;;;;;;;;5058884;28;20954;-79
2024/01/26 13:31:25;;;;;;;22.97;21.57;;;;;;;;;;5059508;28;21114;-79
2024/01/26 13:33:52;;;;;;;23.20;21.80;;;;;;;;;;5059408;28;20422;-80
2024/01/26 13:36:20;;;;;;;22.83;21.30;;;;;;;;;;5067107;28;20454;-79
2024/01/26 13:38:47;;;;;;;24.10;21.97;;;;;;;;;;5059484;28;21174;-79
2024/01/26 13:41:15;;;;;;;24.30;22.30;;;;;;;;;;5066702;28;20509;-80
2024/01/26 13:43:43;;;;;;;21.43;20.23;;;;;;;;;;5066828;28;20965;-79
2024/01/26 13:46:10;;;;;;;22.80;21.40;;;;;;;;;;5061104;28;21198;-79
2024/01/26 13:48:37;;;;;;;22.53;20.70;;;;;;;;;;5052689;28;20450;-80
2024/01/26 13:51:05;;;;;;;22.27;20.87;;;;;;;;;;5052826;28;20435;-78
2024/01/26 13:53:33;;;;;;;22.20;20.50;;;;;;;;;;5052991;28;21017;-78
2024/01/26 13:56:00;;;;;;;21.57;20.27;;;;;;;;;;5052822;28;20931;-80
2024/01/26 13:58:27;;;;;;;21.87;20.60;;;;;;;;;;5052887;28;20492;-80
2024/01/26 14:00:55;;;;;;;23.80;21.80;;;;;;;;;;5052225;28;20476;-78
2024/01/26 14:03:22;;;;;;;23.30;21.80;;;;;;;;;;5053072;28;20447;-82
2024/01/26 14:05:49;;;;;;;23.30;21.67;;;;;;;;;;5056375;28;20486;-81
2024/01/26 14:08:16;;;;;;;23.13;21.30;;;;;;;;;;5055795;28;20450;-80
2024/01/26 14:10:45;;;;;;;22.40;21.00;;;;;;;;;;5056571;28;20473;-81
2024/01/26 14:13:12;;;;;;;23.07;20.93;;;;;;;;;;5057469;28;20452;-81
2024/01/26 14:15:39;;;;;;;24.47;22.27;;;;;;;;;;5057194;28;20447;-81
2024/01/26 14:18:06;;;;;;;21.80;20.30;;;;;;;;;;5056635;28;20501;-82